sensor_id;sensor_type;location;lat;lon;timestamp;temperature;humidity
29031;DHT22;16122;50.236;11.734;2022-10-16T00:01:08;17.20;93.80
29031;DHT22;16122;50.236;11.734;2022-10-16T00:03:36;17.20;93.80
29031;DHT22;16122;50.236;11.734;2022-10-16T00:06:03;17.30;93.80
29031;DHT22;16122;50.236;11.734;2022-10-16T00:08:29;17.20;93.70
29031;DHT22;16122;50.236;11.734;2022-10-16T00:11:05;17.20;93.70
29031;DHT22;16122;50.236;11.734;2022-10-16T00:13:33;17.30;93.70
29031;DHT22;16122;50.236;11.734;2022-10-16T00:15:59;17.20;93.60
29031;DHT22;16122;50.236;11.734;2022-10-16T00:18:27;17.20;93.60
29031;DHT22;16122;50.236;11.734;2022-10-16T00:20:54;17.20;93.60
29031;DHT22;16122;50.236;11.734;2022-10-16T00:23:20;17.20;93.50
29031;DHT22;16122;50.236;11.734;2022-10-16T00:26:03;17.20;93.50
29031;DHT22;16122;50.236;11.734;2022-10-16T00:28:30;17.20;93.50
29031;DHT22;16122;50.236;11.734;2022-10-16T00:30:57;17.20;93.50
29031;DHT22;16122;50.236;11.734;2022-10-16T00:33:23;17.20;93.50
29031;DHT22;16122;50.236;11.734;2022-10-16T00:35:49;17.20;93.40
29031;DHT22;16122;50.236;11.734;2022-10-16T00:38:16;17.20;93.40
29031;DHT22;16122;50.236;11.734;2022-10-16T00:40:42;17.20;93.40
29031;DHT22;16122;50.236;11.734;2022-10-16T00:43:33;17.20;93.40
29031;DHT22;16122;50.236;11.734;2022-10-16T00:46:01;17.20;93.40
29031;DHT22;16122;50.236;11.734;2022-10-16T00:48:27;17.20;93.30
29031;DHT22;16122;50.236;11.734;2022-10-16T00:50:53;17.20;93.30
29031;DHT22;16122;50.236;11.734;2022-10-16T00:53:19;17.20;93.30
29031;DHT22;16122;50.236;11.734;2022-10-16T00:55:46;17.20;93.30
29031;DHT22;16122;50.236;11.734;2022-10-16T00:58:12;17.20;93.20
29031;DHT22;16122;50.236;11.734;2022-10-16T01:00:38;17.20;93.20
29031;DHT22;16122;50.236;11.734;2022-10-16T01:03:32;17.20;93.20
29031;DHT22;16122;50.236;11.734;2022-10-16T01:06:05;17.20;93.20
29031;DHT22;16122;50.236;11.734;2022-10-16T01:09:11;17.20;93.10
29031;DHT22;16122;50.236;11.734;2022-10-16T01:12:01;17.20;93.10
29031;DHT22;16122;50.236;11.734;2022-10-16T01:14:53;17.20;93.10
29031;DHT22;16122;50.236;11.734;2022-10-16T01:17:41;17.20;93.10
29031;DHT22;16122;50.236;11.734;2022-10-16T01:23:41;17.20;93.00
29031;DHT22;16122;50.236;11.734;2022-10-16T01:28:39;17.20;92.90
29031;DHT22;16122;50.236;11.734;2022-10-16T01:31:06;17.20;92.90
29031;DHT22;16122;50.236;11.734;2022-10-16T01:33:40;17.20;92.90
29031;DHT22;16122;50.236;11.734;2022-10-16T01:36:14;17.20;92.90
29031;DHT22;16122;50.236;11.734;2022-10-16T01:38:41;17.20;92.90
29031;DHT22;16122;50.236;11.734;2022-10-16T01:41:19;17.20;92.80
29031;DHT22;16122;50.236;11.734;2022-10-16T01:43:51;17.20;92.80
29031;DHT22;16122;50.236;11.734;2022-10-16T01:46:20;17.20;92.80
29031;DHT22;16122;50.236;11.734;2022-10-16T01:48:48;17.20;92.80
29031;DHT22;16122;50.236;11.734;2022-10-16T01:51:16;17.20;92.80
29031;DHT22;16122;50.236;11.734;2022-10-16T01:53:50;17.20;92.70
29031;DHT22;16122;50.236;11.734;2022-10-16T01:56:18;17.20;92.70
29031;DHT22;16122;50.236;11.734;2022-10-16T01:58:51;17.20;92.70
29031;DHT22;16122;50.236;11.734;2022-10-16T02:01:21;17.20;93.00
29031;DHT22;16122;50.236;11.734;2022-10-16T02:03:51;17.20;92.70
29031;DHT22;16122;50.236;11.734;2022-10-16T02:06:19;17.20;92.60
29031;DHT22;16122;50.236;11.734;2022-10-16T02:08:45;17.20;92.60
29031;DHT22;16122;50.236;11.734;2022-10-16T02:11:11;17.20;92.60
29031;DHT22;16122;50.236;11.734;2022-10-16T02:13:51;17.20;92.60
29031;DHT22;16122;50.236;11.734;2022-10-16T02:16:18;17.20;92.60
29031;DHT22;16122;50.236;11.734;2022-10-16T02:18:44;17.20;92.50
29031;DHT22;16122;50.236;11.734;2022-10-16T02:21:23;17.20;92.50
29031;DHT22;16122;50.236;11.734;2022-10-16T02:24:30;17.20;92.50
29031;DHT22;16122;50.236;11.734;2022-10-16T02:29:39;17.20;92.50
29031;DHT22;16122;50.236;11.734;2022-10-16T02:32:08;17.20;92.50
29031;DHT22;16122;50.236;11.734;2022-10-16T02:34:36;17.20;92.50
29031;DHT22;16122;50.236;11.734;2022-10-16T02:37:04;17.20;92.40
29031;DHT22;16122;50.236;11.734;2022-10-16T02:39:31;17.10;92.40
29031;DHT22;16122;50.236;11.734;2022-10-16T02:41:57;17.20;92.40
29031;DHT22;16122;50.236;11.734;2022-10-16T02:44:22;17.20;92.40
29031;DHT22;16122;50.236;11.734;2022-10-16T02:46:48;17.20;92.40
29031;DHT22;16122;50.236;11.734;2022-10-16T02:49:14;17.20;92.40
29031;DHT22;16122;50.236;11.734;2022-10-16T02:51:40;17.20;92.30
29031;DHT22;16122;50.236;11.734;2022-10-16T02:54:06;17.10;92.30
29031;DHT22;16122;50.236;11.734;2022-10-16T02:56:32;17.10;92.30
29031;DHT22;16122;50.236;11.734;2022-10-16T02:58:58;17.10;92.30
29031;DHT22;16122;50.236;11.734;2022-10-16T03:01:24;17.20;92.30
29031;DHT22;16122;50.236;11.734;2022-10-16T03:03:50;17.20;92.30
29031;DHT22;16122;50.236;11.734;2022-10-16T03:06:16;17.10;92.20
29031;DHT22;16122;50.236;11.734;2022-10-16T03:08:42;17.20;92.20
29031;DHT22;16122;50.236;11.734;2022-10-16T03:11:08;17.20;92.20
29031;DHT22;16122;50.236;11.734;2022-10-16T03:13:34;17.10;92.10
29031;DHT22;16122;50.236;11.734;2022-10-16T03:16:00;17.20;92.20
29031;DHT22;16122;50.236;11.734;2022-10-16T03:18:26;17.10;92.40
29031;DHT22;16122;50.236;11.734;2022-10-16T03:20:51;17.10;92.10
29031;DHT22;16122;50.236;11.734;2022-10-16T03:23:17;17.10;92.40
29031;DHT22;16122;50.236;11.734;2022-10-16T03:25:43;17.10;92.00
29031;DHT22;16122;50.236;11.734;2022-10-16T03:28:09;17.20;92.10
29031;DHT22;16122;50.236;11.734;2022-10-16T03:30:35;17.10;92.00
29031;DHT22;16122;50.236;11.734;2022-10-16T03:33:01;17.10;92.00
29031;DHT22;16122;50.236;11.734;2022-10-16T03:35:26;17.10;92.00
29031;DHT22;16122;50.236;11.734;2022-10-16T03:37:52;17.10;91.90
29031;DHT22;16122;50.236;11.734;2022-10-16T03:40:18;17.10;91.90
29031;DHT22;16122;50.236;11.734;2022-10-16T03:42:44;17.10;91.90
29031;DHT22;16122;50.236;11.734;2022-10-16T03:45:11;17.10;91.90
29031;DHT22;16122;50.236;11.734;2022-10-16T03:47:37;17.10;91.90
29031;DHT22;16122;50.236;11.734;2022-10-16T03:50:03;17.10;91.90
29031;DHT22;16122;50.236;11.734;2022-10-16T03:52:30;17.10;91.80
29031;DHT22;16122;50.236;11.734;2022-10-16T03:54:56;17.10;91.80
29031;DHT22;16122;50.236;11.734;2022-10-16T03:57:21;17.10;91.80
29031;DHT22;16122;50.236;11.734;2022-10-16T03:59:47;17.10;91.80
29031;DHT22;16122;50.236;11.734;2022-10-16T04:02:13;17.10;91.80
29031;DHT22;16122;50.236;11.734;2022-10-16T04:04:39;17.10;91.80
29031;DHT22;16122;50.236;11.734;2022-10-16T04:07:05;17.10;91.80
29031;DHT22;16122;50.236;11.734;2022-10-16T04:09:31;17.10;91.80
29031;DHT22;16122;50.236;11.734;2022-10-16T04:11:56;17.10;91.70
29031;DHT22;16122;50.236;11.734;2022-10-16T04:14:22;17.10;91.70
29031;DHT22;16122;50.236;11.734;2022-10-16T04:16:48;17.10;91.70
29031;DHT22;16122;50.236;11.734;2022-10-16T04:19:14;17.10;91.70
29031;DHT22;16122;50.236;11.734;2022-10-16T04:21:40;17.10;91.70
29031;DHT22;16122;50.236;11.734;2022-10-16T04:24:06;17.10;91.70
29031;DHT22;16122;50.236;11.734;2022-10-16T04:26:31;17.10;91.60
29031;DHT22;16122;50.236;11.734;2022-10-16T04:28:57;17.10;91.70
29031;DHT22;16122;50.236;11.734;2022-10-16T04:31:23;17.10;91.60
29031;DHT22;16122;50.236;11.734;2022-10-16T04:33:49;17.10;91.60
29031;DHT22;16122;50.236;11.734;2022-10-16T04:36:15;17.10;91.60
29031;DHT22;16122;50.236;11.734;2022-10-16T04:38:41;17.10;91.60
29031;DHT22;16122;50.236;11.734;2022-10-16T04:41:07;17.10;91.60
29031;DHT22;16122;50.236;11.734;2022-10-16T04:43:34;17.10;91.60
29031;DHT22;16122;50.236;11.734;2022-10-16T04:45:59;17.10;91.60
29031;DHT22;16122;50.236;11.734;2022-10-16T04:48:26;17.10;91.60
29031;DHT22;16122;50.236;11.734;2022-10-16T04:50:52;17.10;91.90
29031;DHT22;16122;50.236;11.734;2022-10-16T04:53:18;17.10;91.60
29031;DHT22;16122;50.236;11.734;2022-10-16T04:55:44;17.10;91.60
29031;DHT22;16122;50.236;11.734;2022-10-16T04:58:10;17.10;91.70
29031;DHT22;16122;50.236;11.734;2022-10-16T05:00:36;17.10;91.60
29031;DHT22;16122;50.236;11.734;2022-10-16T05:03:04;17.10;91.60
29031;DHT22;16122;50.236;11.734;2022-10-16T05:05:33;17.10;91.60
29031;DHT22;16122;50.236;11.734;2022-10-16T05:07:59;17.10;91.60
29031;DHT22;16122;50.236;11.734;2022-10-16T05:10:25;17.10;91.60
29031;DHT22;16122;50.236;11.734;2022-10-16T05:12:50;17.10;91.60
29031;DHT22;16122;50.236;11.734;2022-10-16T05:15:17;17.10;91.60
29031;DHT22;16122;50.236;11.734;2022-10-16T05:17:44;17.10;91.60
29031;DHT22;16122;50.236;11.734;2022-10-16T05:20:11;17.10;91.50
29031;DHT22;16122;50.236;11.734;2022-10-16T05:22:37;17.10;91.50
29031;DHT22;16122;50.236;11.734;2022-10-16T05:25:03;17.10;91.50
29031;DHT22;16122;50.236;11.734;2022-10-16T05:27:29;17.10;91.50
29031;DHT22;16122;50.236;11.734;2022-10-16T05:29:55;17.10;91.50
29031;DHT22;16122;50.236;11.734;2022-10-16T05:32:21;17.10;91.50
29031;DHT22;16122;50.236;11.734;2022-10-16T05:34:47;17.10;91.70
29031;DHT22;16122;50.236;11.734;2022-10-16T05:37:13;17.10;91.80
29031;DHT22;16122;50.236;11.734;2022-10-16T05:39:39;17.10;91.90
29031;DHT22;16122;50.236;11.734;2022-10-16T05:42:05;17.10;92.00
29031;DHT22;16122;50.236;11.734;2022-10-16T05:44:31;17.10;92.00
29031;DHT22;16122;50.236;11.734;2022-10-16T05:46:57;17.10;92.10
29031;DHT22;16122;50.236;11.734;2022-10-16T05:49:24;17.10;92.10
29031;DHT22;16122;50.236;11.734;2022-10-16T05:51:50;17.10;92.10
29031;DHT22;16122;50.236;11.734;2022-10-16T05:54:15;17.10;92.20
29031;DHT22;16122;50.236;11.734;2022-10-16T05:56:41;17.10;92.20
29031;DHT22;16122;50.236;11.734;2022-10-16T05:59:07;17.10;92.30
29031;DHT22;16122;50.236;11.734;2022-10-16T06:01:33;17.10;92.30
29031;DHT22;16122;50.236;11.734;2022-10-16T06:03:59;17.10;92.30
29031;DHT22;16122;50.236;11.734;2022-10-16T06:06:26;17.10;92.20
29031;DHT22;16122;50.236;11.734;2022-10-16T06:08:54;17.10;92.30
29031;DHT22;16122;50.236;11.734;2022-10-16T06:11:23;17.10;92.30
29031;DHT22;16122;50.236;11.734;2022-10-16T06:13:50;17.10;92.50
29031;DHT22;16122;50.236;11.734;2022-10-16T06:16:16;17.10;92.40
29031;DHT22;16122;50.236;11.734;2022-10-16T06:18:43;17.10;92.40
29031;DHT22;16122;50.236;11.734;2022-10-16T06:21:17;17.10;92.40
29031;DHT22;16122;50.236;11.734;2022-10-16T06:23:43;17.10;92.40
29031;DHT22;16122;50.236;11.734;2022-10-16T06:26:14;17.10;92.50
29031;DHT22;16122;50.236;11.734;2022-10-16T06:28:40;17.10;92.40
29031;DHT22;16122;50.236;11.734;2022-10-16T06:31:08;17.10;92.60
29031;DHT22;16122;50.236;11.734;2022-10-16T06:33:35;17.10;92.70
29031;DHT22;16122;50.236;11.734;2022-10-16T06:36:09;17.10;92.50
29031;DHT22;16122;50.236;11.734;2022-10-16T06:38:36;17.10;92.70
29031;DHT22;16122;50.236;11.734;2022-10-16T06:41:02;17.10;92.70
29031;DHT22;16122;50.236;11.734;2022-10-16T06:43:29;17.10;92.70
29031;DHT22;16122;50.236;11.734;2022-10-16T06:46:02;17.10;92.90
29031;DHT22;16122;50.236;11.734;2022-10-16T06:48:28;17.10;93.10
29031;DHT22;16122;50.236;11.734;2022-10-16T06:51:03;17.10;93.00
29031;DHT22;16122;50.236;11.734;2022-10-16T06:53:32;17.10;92.90
29031;DHT22;16122;50.236;11.734;2022-10-16T06:56:05;17.10;93.10
29031;DHT22;16122;50.236;11.734;2022-10-16T06:58:31;17.10;93.20
29031;DHT22;16122;50.236;11.734;2022-10-16T07:00:57;17.10;93.00
29031;DHT22;16122;50.236;11.734;2022-10-16T07:03:23;17.10;93.20
29031;DHT22;16122;50.236;11.734;2022-10-16T07:05:49;17.10;93.00
29031;DHT22;16122;50.236;11.734;2022-10-16T07:08:15;17.20;93.20
29031;DHT22;16122;50.236;11.734;2022-10-16T07:10:41;17.10;93.10
29031;DHT22;16122;50.236;11.734;2022-10-16T07:13:07;17.10;93.20
29031;DHT22;16122;50.236;11.734;2022-10-16T07:15:33;17.10;93.00
29031;DHT22;16122;50.236;11.734;2022-10-16T07:17:59;17.10;93.00
29031;DHT22;16122;50.236;11.734;2022-10-16T07:20:25;17.10;93.10
29031;DHT22;16122;50.236;11.734;2022-10-16T07:22:52;17.10;93.10
29031;DHT22;16122;50.236;11.734;2022-10-16T07:25:17;17.10;93.10
29031;DHT22;16122;50.236;11.734;2022-10-16T07:27:44;17.10;93.20
29031;DHT22;16122;50.236;11.734;2022-10-16T07:30:10;17.10;93.20
29031;DHT22;16122;50.236;11.734;2022-10-16T07:32:36;17.10;93.20
29031;DHT22;16122;50.236;11.734;2022-10-16T07:35:02;17.10;93.10
29031;DHT22;16122;50.236;11.734;2022-10-16T07:37:28;17.10;93.10
29031;DHT22;16122;50.236;11.734;2022-10-16T07:39:53;17.10;93.10
29031;DHT22;16122;50.236;11.734;2022-10-16T07:42:19;17.20;93.10
29031;DHT22;16122;50.236;11.734;2022-10-16T07:44:46;17.10;93.00
29031;DHT22;16122;50.236;11.734;2022-10-16T07:47:12;17.10;93.00
29031;DHT22;16122;50.236;11.734;2022-10-16T07:49:38;17.10;93.10
29031;DHT22;16122;50.236;11.734;2022-10-16T07:52:04;17.20;93.10
29031;DHT22;16122;50.236;11.734;2022-10-16T07:54:30;17.10;93.10
29031;DHT22;16122;50.236;11.734;2022-10-16T07:56:55;17.20;93.10
29031;DHT22;16122;50.236;11.734;2022-10-16T07:59:21;17.10;93.00
29031;DHT22;16122;50.236;11.734;2022-10-16T08:01:49;17.20;93.10
29031;DHT22;16122;50.236;11.734;2022-10-16T08:04:15;17.10;93.10
29031;DHT22;16122;50.236;11.734;2022-10-16T08:06:41;17.10;93.00
29031;DHT22;16122;50.236;11.734;2022-10-16T08:09:07;17.10;93.00
29031;DHT22;16122;50.236;11.734;2022-10-16T08:11:33;17.20;93.00
29031;DHT22;16122;50.236;11.734;2022-10-16T08:13:59;17.20;93.10
29031;DHT22;16122;50.236;11.734;2022-10-16T08:16:25;17.20;93.00
29031;DHT22;16122;50.236;11.734;2022-10-16T08:18:51;17.20;93.00
29031;DHT22;16122;50.236;11.734;2022-10-16T08:21:20;17.20;92.90
29031;DHT22;16122;50.236;11.734;2022-10-16T08:23:47;17.20;93.00
29031;DHT22;16122;50.236;11.734;2022-10-16T08:26:13;17.20;93.00
29031;DHT22;16122;50.236;11.734;2022-10-16T08:28:38;17.20;93.00
29031;DHT22;16122;50.236;11.734;2022-10-16T08:31:12;17.20;93.10
29031;DHT22;16122;50.236;11.734;2022-10-16T08:33:40;17.20;93.20
29031;DHT22;16122;50.236;11.734;2022-10-16T08:36:06;17.20;93.20
29031;DHT22;16122;50.236;11.734;2022-10-16T08:38:33;17.20;93.10
29031;DHT22;16122;50.236;11.734;2022-10-16T08:41:26;17.20;93.00
29031;DHT22;16122;50.236;11.734;2022-10-16T08:49:21;17.20;92.80
29031;DHT22;16122;50.236;11.734;2022-10-16T08:51:50;17.20;92.80
29031;DHT22;16122;50.236;11.734;2022-10-16T08:56:53;17.20;92.70
29031;DHT22;16122;50.236;11.734;2022-10-16T08:59:20;17.20;92.70
29031;DHT22;16122;50.236;11.734;2022-10-16T09:01:49;17.20;92.70
29031;DHT22;16122;50.236;11.734;2022-10-16T09:07:24;17.20;92.80
29031;DHT22;16122;50.236;11.734;2022-10-16T09:12:26;17.20;92.80
29031;DHT22;16122;50.236;11.734;2022-10-16T09:14:58;17.20;92.80
29031;DHT22;16122;50.236;11.734;2022-10-16T09:17:30;17.20;92.80
29031;DHT22;16122;50.236;11.734;2022-10-16T09:22:42;17.20;92.90
29031;DHT22;16122;50.236;11.734;2022-10-16T09:25:17;17.20;92.60
29031;DHT22;16122;50.236;11.734;2022-10-16T09:27:47;17.20;92.20
29031;DHT22;16122;50.236;11.734;2022-10-16T09:30:16;17.20;92.10
29031;DHT22;16122;50.236;11.734;2022-10-16T09:32:44;17.20;92.10
29031;DHT22;16122;50.236;11.734;2022-10-16T09:35:18;17.20;92.10
29031;DHT22;16122;50.236;11.734;2022-10-16T09:37:48;17.20;92.40
29031;DHT22;16122;50.236;11.734;2022-10-16T09:40:47;17.20;91.30
29031;DHT22;16122;50.236;11.734;2022-10-16T09:45:57;17.20;91.50
29031;DHT22;16122;50.236;11.734;2022-10-16T09:48:59;17.20;91.60
29031;DHT22;16122;50.236;11.734;2022-10-16T09:51:37;17.20;91.30
29031;DHT22;16122;50.236;11.734;2022-10-16T09:56:36;17.20;91.50
29031;DHT22;16122;50.236;11.734;2022-10-16T09:59:12;17.20;91.60
29031;DHT22;16122;50.236;11.734;2022-10-16T10:01:51;17.20;91.50
29031;DHT22;16122;50.236;11.734;2022-10-16T10:04:18;17.20;92.30
29031;DHT22;16122;50.236;11.734;2022-10-16T10:06:52;17.20;93.40
29031;DHT22;16122;50.236;11.734;2022-10-16T10:09:25;17.20;93.70
29031;DHT22;16122;50.236;11.734;2022-10-16T10:12:02;17.30;95.00
29031;DHT22;16122;50.236;11.734;2022-10-16T10:14:30;17.30;95.50
29031;DHT22;16122;50.236;11.734;2022-10-16T10:22:41;17.30;97.50
29031;DHT22;16122;50.236;11.734;2022-10-16T10:39:07;17.30;99.50
29031;DHT22;16122;50.236;11.734;2022-10-16T10:45:08;17.40;99.90
29031;DHT22;16122;50.236;11.734;2022-10-16T10:50:33;17.40;99.90
29031;DHT22;16122;50.236;11.734;2022-10-16T11:06:59;17.40;99.40
29031;DHT22;16122;50.236;11.734;2022-10-16T11:09:39;17.40;99.30
29031;DHT22;16122;50.236;11.734;2022-10-16T11:12:37;17.50;99.20
29031;DHT22;16122;50.236;11.734;2022-10-16T11:15:27;17.50;99.10
29031;DHT22;16122;50.236;11.734;2022-10-16T11:20:34;17.50;98.80
29031;DHT22;16122;50.236;11.734;2022-10-16T11:23:29;17.50;98.80
29031;DHT22;16122;50.236;11.734;2022-10-16T11:25:59;17.50;98.90
29031;DHT22;16122;50.236;11.734;2022-10-16T11:28:32;17.50;98.80
29031;DHT22;16122;50.236;11.734;2022-10-16T11:34:12;17.50;98.60
29031;DHT22;16122;50.236;11.734;2022-10-16T11:36:56;17.50;98.50
29031;DHT22;16122;50.236;11.734;2022-10-16T11:41:55;17.50;98.40
29031;DHT22;16122;50.236;11.734;2022-10-16T11:49:36;17.50;98.30
29031;DHT22;16122;50.236;11.734;2022-10-16T11:52:21;17.50;98.30
29031;DHT22;16122;50.236;11.734;2022-10-16T11:57:47;17.50;98.50
29031;DHT22;16122;50.236;11.734;2022-10-16T12:00:42;17.60;98.40
29031;DHT22;16122;50.236;11.734;2022-10-16T12:08:36;17.60;97.90
29031;DHT22;16122;50.236;11.734;2022-10-16T12:11:34;17.60;97.80
29031;DHT22;16122;50.236;11.734;2022-10-16T12:14:22;17.60;97.90
29031;DHT22;16122;50.236;11.734;2022-10-16T12:17:03;17.60;97.90
29031;DHT22;16122;50.236;11.734;2022-10-16T12:19:32;17.60;97.80
29031;DHT22;16122;50.236;11.734;2022-10-16T12:22:02;17.60;97.70
29031;DHT22;16122;50.236;11.734;2022-10-16T12:24:41;17.60;97.70
29031;DHT22;16122;50.236;11.734;2022-10-16T12:27:27;17.60;97.80
29031;DHT22;16122;50.236;11.734;2022-10-16T12:29:59;17.60;97.90
29031;DHT22;16122;50.236;11.734;2022-10-16T12:32:37;17.60;97.90
29031;DHT22;16122;50.236;11.734;2022-10-16T12:35:06;17.60;98.00
29031;DHT22;16122;50.236;11.734;2022-10-16T12:37:42;17.60;98.00
29031;DHT22;16122;50.236;11.734;2022-10-16T12:40:25;17.60;98.10
29031;DHT22;16122;50.236;11.734;2022-10-16T12:42:51;17.60;98.10
29031;DHT22;16122;50.236;11.734;2022-10-16T12:47:51;17.60;98.10
29031;DHT22;16122;50.236;11.734;2022-10-16T12:50:31;17.60;98.30
29031;DHT22;16122;50.236;11.734;2022-10-16T12:53:01;17.60;98.00
29031;DHT22;16122;50.236;11.734;2022-10-16T12:55:35;17.60;98.00
29031;DHT22;16122;50.236;11.734;2022-10-16T13:00:45;17.60;97.80
29031;DHT22;16122;50.236;11.734;2022-10-16T13:03:59;17.70;97.90
29031;DHT22;16122;50.236;11.734;2022-10-16T13:06:30;17.70;97.90
29031;DHT22;16122;50.236;11.734;2022-10-16T13:12:01;17.60;97.90
29031;DHT22;16122;50.236;11.734;2022-10-16T13:17:50;17.70;97.90
29031;DHT22;16122;50.236;11.734;2022-10-16T13:23:17;17.70;98.00
29031;DHT22;16122;50.236;11.734;2022-10-16T13:28:38;17.70;97.70
29031;DHT22;16122;50.236;11.734;2022-10-16T13:31:05;17.70;97.70
29031;DHT22;16122;50.236;11.734;2022-10-16T13:33:34;17.70;97.70
29031;DHT22;16122;50.236;11.734;2022-10-16T13:36:01;17.70;97.70
29031;DHT22;16122;50.236;11.734;2022-10-16T13:38:32;17.70;97.80
29031;DHT22;16122;50.236;11.734;2022-10-16T13:41:03;17.70;97.90
29031;DHT22;16122;50.236;11.734;2022-10-16T13:43:39;17.70;98.00
29031;DHT22;16122;50.236;11.734;2022-10-16T13:46:12;17.70;98.00
29031;DHT22;16122;50.236;11.734;2022-10-16T13:48:38;17.70;97.90
29031;DHT22;16122;50.236;11.734;2022-10-16T13:51:15;17.70;97.90
29031;DHT22;16122;50.236;11.734;2022-10-16T13:53:43;17.70;97.90
29031;DHT22;16122;50.236;11.734;2022-10-16T13:56:17;17.70;97.80
29031;DHT22;16122;50.236;11.734;2022-10-16T13:58:43;17.70;97.70
29031;DHT22;16122;50.236;11.734;2022-10-16T14:01:29;17.70;97.80
29031;DHT22;16122;50.236;11.734;2022-10-16T14:04:05;17.70;97.10
29031;DHT22;16122;50.236;11.734;2022-10-16T14:06:33;17.70;97.00
29031;DHT22;16122;50.236;11.734;2022-10-16T14:09:13;17.70;97.10
29031;DHT22;16122;50.236;11.734;2022-10-16T14:11:50;17.70;97.30
29031;DHT22;16122;50.236;11.734;2022-10-16T14:14:19;17.70;97.60
29031;DHT22;16122;50.236;11.734;2022-10-16T14:16:46;17.80;97.50
29031;DHT22;16122;50.236;11.734;2022-10-16T14:19:21;17.80;97.70
29031;DHT22;16122;50.236;11.734;2022-10-16T14:21:50;17.80;97.60
29031;DHT22;16122;50.236;11.734;2022-10-16T14:24:27;17.80;97.30
29031;DHT22;16122;50.236;11.734;2022-10-16T14:26:53;17.70;97.00
29031;DHT22;16122;50.236;11.734;2022-10-16T14:29:23;17.80;97.00
29031;DHT22;16122;50.236;11.734;2022-10-16T14:32:06;17.80;96.80
29031;DHT22;16122;50.236;11.734;2022-10-16T14:34:42;17.80;96.70
29031;DHT22;16122;50.236;11.734;2022-10-16T14:37:26;17.80;96.70
29031;DHT22;16122;50.236;11.734;2022-10-16T14:39:53;17.80;96.70
29031;DHT22;16122;50.236;11.734;2022-10-16T14:42:21;17.80;96.50
29031;DHT22;16122;50.236;11.734;2022-10-16T14:44:50;17.80;96.60
29031;DHT22;16122;50.236;11.734;2022-10-16T14:47:22;17.80;96.50
29031;DHT22;16122;50.236;11.734;2022-10-16T14:49:54;17.80;96.50
29031;DHT22;16122;50.236;11.734;2022-10-16T14:52:21;17.80;96.40
29031;DHT22;16122;50.236;11.734;2022-10-16T14:54:51;17.80;96.30
29031;DHT22;16122;50.236;11.734;2022-10-16T14:57:23;17.80;96.30
29031;DHT22;16122;50.236;11.734;2022-10-16T14:59:49;17.80;96.30
29031;DHT22;16122;50.236;11.734;2022-10-16T15:05:10;17.90;98.30
29031;DHT22;16122;50.236;11.734;2022-10-16T15:07:36;17.90;98.50
29031;DHT22;16122;50.236;11.734;2022-10-16T15:10:03;17.90;98.50
29031;DHT22;16122;50.236;11.734;2022-10-16T15:12:29;17.90;99.50
29031;DHT22;16122;50.236;11.734;2022-10-16T15:14:56;17.90;99.80
29031;DHT22;16122;50.236;11.734;2022-10-16T15:17:22;17.90;99.90
29031;DHT22;16122;50.236;11.734;2022-10-16T15:19:47;17.90;99.90
29031;DHT22;16122;50.236;11.734;2022-10-16T15:22:14;17.90;99.90
29031;DHT22;16122;50.236;11.734;2022-10-16T15:24:40;17.90;99.90
29031;DHT22;16122;50.236;11.734;2022-10-16T15:27:06;17.90;99.90
29031;DHT22;16122;50.236;11.734;2022-10-16T15:29:32;17.90;99.90
29031;DHT22;16122;50.236;11.734;2022-10-16T15:31:58;17.90;99.90
29031;DHT22;16122;50.236;11.734;2022-10-16T15:34:23;17.80;99.90
29031;DHT22;16122;50.236;11.734;2022-10-16T15:36:49;17.90;99.90
29031;DHT22;16122;50.236;11.734;2022-10-16T15:39:18;17.90;99.90
29031;DHT22;16122;50.236;11.734;2022-10-16T15:41:48;17.90;99.90
29031;DHT22;16122;50.236;11.734;2022-10-16T15:44:19;17.90;99.90
29031;DHT22;16122;50.236;11.734;2022-10-16T15:46:46;17.90;99.90
29031;DHT22;16122;50.236;11.734;2022-10-16T15:49:12;17.90;99.90
29031;DHT22;16122;50.236;11.734;2022-10-16T15:51:39;17.90;99.90
29031;DHT22;16122;50.236;11.734;2022-10-16T15:54:06;17.90;99.90
29031;DHT22;16122;50.236;11.734;2022-10-16T15:56:32;17.90;99.90
29031;DHT22;16122;50.236;11.734;2022-10-16T15:59:00;17.90;99.90
29031;DHT22;16122;50.236;11.734;2022-10-16T16:01:27;17.90;99.90
29031;DHT22;16122;50.236;11.734;2022-10-16T16:03:55;17.90;98.60
29031;DHT22;16122;50.236;11.734;2022-10-16T16:06:22;18.00;99.90
29031;DHT22;16122;50.236;11.734;2022-10-16T16:08:50;18.00;99.90
29031;DHT22;16122;50.236;11.734;2022-10-16T16:11:17;17.90;99.90
29031;DHT22;16122;50.236;11.734;2022-10-16T16:13:43;17.90;99.90
29031;DHT22;16122;50.236;11.734;2022-10-16T16:16:13;18.00;99.90
29031;DHT22;16122;50.236;11.734;2022-10-16T16:18:40;18.00;99.90
29031;DHT22;16122;50.236;11.734;2022-10-16T16:21:07;18.00;99.90
29031;DHT22;16122;50.236;11.734;2022-10-16T16:23:34;18.00;99.90
29031;DHT22;16122;50.236;11.734;2022-10-16T16:26:08;18.00;99.90
29031;DHT22;16122;50.236;11.734;2022-10-16T16:28:36;18.00;99.90
29031;DHT22;16122;50.236;11.734;2022-10-16T16:31:03;18.00;99.90
29031;DHT22;16122;50.236;11.734;2022-10-16T16:33:29;18.00;99.90
29031;DHT22;16122;50.236;11.734;2022-10-16T16:35:58;18.00;99.90
29031;DHT22;16122;50.236;11.734;2022-10-16T16:38:24;18.00;99.90
29031;DHT22;16122;50.236;11.734;2022-10-16T16:40:50;18.00;99.90
29031;DHT22;16122;50.236;11.734;2022-10-16T16:43:17;18.00;99.90
29031;DHT22;16122;50.236;11.734;2022-10-16T16:45:43;18.00;99.90
29031;DHT22;16122;50.236;11.734;2022-10-16T16:48:09;18.00;99.90
29031;DHT22;16122;50.236;11.734;2022-10-16T16:50:36;18.00;99.90
29031;DHT22;16122;50.236;11.734;2022-10-16T16:53:03;18.00;99.90
29031;DHT22;16122;50.236;11.734;2022-10-16T16:55:29;18.00;99.90
29031;DHT22;16122;50.236;11.734;2022-10-16T16:57:55;18.00;99.90
29031;DHT22;16122;50.236;11.734;2022-10-16T17:00:22;18.00;99.90
29031;DHT22;16122;50.236;11.734;2022-10-16T17:02:49;18.00;99.90
29031;DHT22;16122;50.236;11.734;2022-10-16T17:05:17;18.00;99.90
29031;DHT22;16122;50.236;11.734;2022-10-16T17:07:43;18.00;99.90
29031;DHT22;16122;50.236;11.734;2022-10-16T17:10:09;18.00;99.90
29031;DHT22;16122;50.236;11.734;2022-10-16T17:12:35;18.00;99.90
29031;DHT22;16122;50.236;11.734;2022-10-16T17:15:02;18.00;99.90
29031;DHT22;16122;50.236;11.734;2022-10-16T17:17:28;18.00;99.90
29031;DHT22;16122;50.236;11.734;2022-10-16T17:19:54;18.00;99.90
29031;DHT22;16122;50.236;11.734;2022-10-16T17:22:20;18.00;99.90